Time;durP1;ratioP1;P1;durP2;ratioP2;P2;SDS_P1;SDS_P2;PMS_P1;PMS_P2;Temp;Humidity;BMP_temperature;BMP_pressure;BME280_temperature;BME280_humidity;BME280_pressure;Samples;Min_cycle;Max_cycle;Signal;HPM_P1;HPM_P2
2022/02/12 00:04:31;;;;;;;16.80;10.20;;;;;;;1.12;90.87;99673.95;447088;1273;108882;-41
2022/02/12 00:14:37;;;;;;;21.10;12.20;;;;;;;1.16;90.88;99684.30;447101;1272;107970;-41
2022/02/12 00:24:44;;;;;;;23.90;11.10;;;;;;;1.20;90.90;99698.41;447030;1273;93165;-40
2022/02/12 00:34:51;;;;;;;14.60;10.30;;;;;;;1.19;91.00;99710.77;447022;1271;93306;-41
2022/02/12 00:45:00;;;;;;;21.70;10.80;;;;;;;1.19;91.15;99726.24;447068;1273;109771;-40
2022/02/12 00:55:08;;;;;;;23.80;10.40;;;;;;;1.19;91.04;99742.39;447038;1273;109081;-40
2022/02/12 01:05:15;;;;;;;21.10;10.00;;;;;;;1.18;91.00;99760.77;446997;1272;108826;-41
2022/02/12 01:15:23;;;;;;;22.20;11.20;;;;;;;1.17;90.84;99772.09;447050;1273;93321;-40
2022/02/12 01:25:30;;;;;;;21.60;10.40;;;;;;;1.15;90.69;99784.95;447002;1273;93075;-40
2022/02/12 01:35:37;;;;;;;19.50;9.50;;;;;;;1.08;90.43;99781.10;446967;1273;109943;-40
2022/02/12 01:45:43;;;;;;;16.80;9.50;;;;;;;0.92;90.34;99799.83;447089;1273;108721;-40
2022/02/12 01:55:50;;;;;;;11.70;7.00;;;;;;;0.79;90.16;99826.81;446879;1273;108917;-40
2022/02/12 02:05:59;;;;;;;12.70;6.80;;;;;;;0.72;89.73;99845.32;446919;1273;93009;-40
2022/02/12 02:16:10;;;;;;;14.50;7.20;;;;;;;0.62;89.52;99857.72;446884;1273;93035;-41
2022/02/12 02:26:17;;;;;;;25.40;11.40;;;;;;;0.45;89.44;99873.10;446873;1273;108730;-40
2022/02/12 02:36:24;;;;;;;15.00;7.50;;;;;;;0.21;89.28;99888.40;442724;1274;5374154;-40
2022/02/12 02:46:31;;;;;;;16.00;6.00;;;;;;;0.16;89.24;99911.46;446772;1272;93491;-41
2022/02/12 02:56:40;;;;;;;10.60;6.60;;;;;;;0.08;88.88;99926.06;446796;1273;93130;-40
2022/02/12 03:06:46;;;;;;;13.00;6.00;;;;;;;0.01;89.01;99950.63;446855;1273;108779;-40
2022/02/12 03:16:53;;;;;;;16.80;7.20;;;;;;;-0.09;88.94;99969.95;446732;1273;109229;-41
2022/02/12 03:26:59;;;;;;;15.80;6.20;;;;;;;-0.20;89.18;99983.20;447259;1271;107834;-40
2022/02/12 03:37:06;;;;;;;11.10;5.80;;;;;;;-0.19;89.02;100004.97;447218;1271;92990;-40
2022/02/12 03:47:14;;;;;;;12.40;5.60;;;;;;;-0.15;89.29;100017.64;447222;1270;93339;-41
2022/02/12 03:57:21;;;;;;;11.80;5.00;;;;;;;-0.10;89.17;100024.94;447214;1271;109662;-41
2022/02/12 04:07:29;;;;;;;17.70;6.90;;;;;;;-0.09;89.01;100043.11;447349;1271;108806;-40
2022/02/12 04:17:36;;;;;;;10.10;4.60;;;;;;;-0.14;88.91;100051.16;447189;1270;108736;-40
2022/02/12 04:27:44;;;;;;;14.80;5.40;;;;;;;-0.15;88.72;100069.09;447210;1270;93103;-40
2022/02/12 04:37:51;;;;;;;13.50;4.60;;;;;;;-0.15;88.44;100083.13;447302;1271;93320;-40
2022/02/12 04:47:57;;;;;;;10.70;7.00;;;;;;;-0.21;88.69;100096.42;447334;1269;106806;-41
2022/02/12 04:58:04;;;;;;;16.20;7.30;;;;;;;-0.35;88.51;100107.11;447254;1271;108776;-40
2022/02/12 05:08:13;;;;;;;14.30;5.30;;;;;;;-0.34;88.50;100111.50;447284;1271;108665;-40
2022/02/12 05:18:20;;;;;;;10.40;6.50;;;;;;;-0.35;88.43;100130.02;447288;1270;93350;-40
2022/02/12 05:28:27;;;;;;;20.70;9.20;;;;;;;-0.39;88.38;100129.11;447292;1269;93354;-40
2022/02/12 05:38:36;;;;;;;18.00;7.80;;;;;;;-0.52;88.46;100141.10;447324;1269;108049;-41
2022/02/12 05:48:45;;;;;;;12.70;6.90;;;;;;;-0.62;88.31;100161.23;447334;1270;109165;-40
2022/02/12 05:58:52;;;;;;;16.50;6.40;;;;;;;-0.55;88.22;100171.95;447249;1271;108793;-39
2022/02/12 06:08:59;;;;;;;10.50;4.80;;;;;;;-0.54;88.17;100182.96;447216;1270;93392;-38
2022/02/12 06:19:06;;;;;;;20.00;9.60;;;;;;;-0.61;88.49;100202.92;447359;1269;93319;-38
2022/02/12 06:29:13;;;;;;;23.10;10.60;;;;;;;-0.68;88.78;100205.52;447373;1270;109669;-38
2022/02/12 06:39:20;;;;;;;19.20;10.00;;;;;;;-0.69;88.54;100209.11;447271;1271;108859;-39
2022/02/12 06:49:27;;;;;;;47.30;18.40;;;;;;;-0.60;88.45;100217.04;447273;1271;108830;-38
2022/02/12 06:59:36;;;;;;;30.10;15.00;;;;;;;-0.47;88.11;100238.22;447330;1271;93419;-39
2022/02/12 07:09:44;;;;;;;25.40;12.30;;;;;;;-0.32;88.32;100255.74;447285;1268;93415;-39
2022/02/12 07:19:51;;;;;;;20.60;8.20;;;;;;;-0.30;88.35;100281.02;447302;1270;111181;-38
2022/02/12 07:29:59;;;;;;;12.80;7.50;;;;;;;-0.21;88.13;100298.20;447047;1272;108734;-39
2022/02/12 07:40:07;;;;;;;11.40;7.50;;;;;;;-0.11;87.88;100315.11;447200;1269;108823;-39
2022/02/12 07:50:15;;;;;;;18.90;10.00;;;;;;;-0.01;88.03;100318.08;447243;1269;94722;-39
2022/02/12 08:00:22;;;;;;;17.30;9.00;;;;;;;0.05;88.18;100332.36;447300;1271;94631;-39
2022/02/12 08:20:54;;;;;;;19.40;7.40;;;;;;;0.42;87.80;100355.63;446808;1273;107741;-39
2022/02/12 08:42:22;;;;;;;19.10;6.30;;;;;;;0.73;87.17;100385.58;418289;1309;641520;-40
2022/02/12 08:52:25;;;;;;;17.90;9.60;;;;;;;0.87;87.45;100394.15;426204;1278;5383700;-38
2022/02/12 09:02:29;;;;;;;16.00;7.90;;;;;;;1.08;87.39;100398.28;430532;1277;108807;-41
2022/02/12 09:12:33;;;;;;;24.40;10.80;;;;;;;1.26;87.24;100401.50;430566;1277;95820;-40
2022/02/12 09:22:37;;;;;;;16.20;7.50;;;;;;;1.96;87.45;100401.33;430360;1277;95694;-41
2022/02/12 09:32:40;;;;;;;14.80;8.00;;;;;;;1.93;86.39;100412.60;432252;1274;95979;-41
2022/02/12 09:42:44;;;;;;;19.30;10.90;;;;;;;1.64;85.91;100420.77;432192;1274;107826;-40
2022/02/12 09:52:47;;;;;;;31.00;15.80;;;;;;;1.90;86.49;100426.01;432273;1273;95930;-40
2022/02/12 10:02:52;;;;;;;8.50;4.70;;;;;;;2.44;86.22;100429.00;432167;1273;108934;-40
2022/02/12 10:13:09;;;;;;;15.00;7.90;;;;;;;2.61;85.84;100419.02;431659;1274;96037;-40
2022/02/12 10:23:15;;;;;;;15.90;6.80;;;;;;;2.85;85.81;100420.55;432137;1274;109220;-41
2022/02/12 10:33:19;;;;;;;11.40;5.40;;;;;;;2.64;85.10;100415.80;432161;1274;96970;-41
2022/02/12 10:53:27;;;;;;;6.10;3.60;;;;;;;2.91;84.77;100412.35;431426;1274;108903;-41
2022/02/12 11:03:34;;;;;;;7.60;3.30;;;;;;;3.22;84.68;100393.17;431891;1273;97121;-42
2022/02/12 11:13:40;;;;;;;3.90;2.70;;;;;;;3.52;84.07;100379.19;431732;1274;95351;-41
2022/02/12 11:34:06;;;;;;;9.00;3.10;;;;;;;3.31;82.18;100366.90;431323;1274;109323;-41
2022/02/12 11:44:10;;;;;;;8.00;3.90;;;;;;;3.27;81.85;100349.33;432103;1273;108853;-42
2022/02/12 12:15:26;;;;;;;8.60;2.90;;;;;;;3.72;79.84;100329.08;431143;1274;108978;-40
2022/02/12 12:25:30;;;;;;;11.90;5.10;;;;;;;3.68;79.23;100322.23;430706;1276;109695;-40
2022/02/12 14:52:43;;;;;;;21.60;8.90;;;;;;;3.12;70.93;100186.23;433969;1287;946332;-40
2022/02/12 15:02:46;;;;;;;13.00;6.10;;;;;;;3.03;71.77;100178.64;435539;1260;95267;-40
2022/02/12 15:12:49;;;;;;;14.30;7.60;;;;;;;2.78;71.29;100175.08;435414;1260;109060;-42
2022/02/12 15:22:53;;;;;;;19.50;8.90;;;;;;;2.46;70.49;100165.91;435461;1260;96492;-40
2022/02/12 15:32:57;;;;;;;27.50;11.60;;;;;;;2.20;70.50;100161.45;435384;1260;109667;-42
2022/02/12 15:53:04;;;;;;;32.60;15.80;;;;;;;1.75;71.10;100161.67;435467;1260;95671;-40
2022/02/12 16:03:08;;;;;;;79.80;31.50;;;;;;;1.43;71.14;100150.93;435453;1260;96329;-42
2022/02/12 16:13:12;;;;;;;88.20;36.10;;;;;;;1.11;71.31;100149.37;435442;1260;109132;-40
2022/02/12 16:23:16;;;;;;;155.10;62.60;;;;;;;0.84;71.70;100132.39;435331;1260;95527;-41
2022/02/12 16:33:21;;;;;;;176.50;71.80;;;;;;;0.43;71.80;100127.73;435465;1260;95315;-41
2022/02/12 16:43:25;;;;;;;136.70;56.90;;;;;;;0.04;72.07;100128.05;435343;1260;96147;-40
2022/02/12 16:53:28;;;;;;;123.30;54.80;;;;;;;-0.15;72.72;100112.43;435405;1259;95776;-41
2022/02/12 17:03:32;;;;;;;141.60;58.10;;;;;;;-0.39;72.53;100108.17;435450;1260;96147;-40
2022/02/12 17:13:40;;;;;;;105.70;51.70;;;;;;;-0.61;72.88;100107.86;435401;1260;95340;-40
2022/02/12 17:23:44;;;;;;;104.80;52.80;;;;;;;-0.80;73.04;100090.29;435316;1260;109299;-40
2022/02/12 17:33:48;;;;;;;238.40;93.00;;;;;;;-0.92;73.38;100093.00;435411;1260;96875;-41
2022/02/12 17:43:52;;;;;;;242.80;102.60;;;;;;;-1.14;73.25;100101.83;435545;1260;96784;-41
2022/02/12 17:53:56;;;;;;;222.60;91.60;;;;;;;-1.43;73.68;100095.02;439493;1250;108980;-41
2022/02/12 18:04:00;;;;;;;180.00;79.10;;;;;;;-1.48;74.11;100092.68;439654;1251;95655;-41
2022/02/12 18:14:08;;;;;;;248.40;102.00;;;;;;;-1.36;74.32;100087.94;439621;1251;95549;-40
2022/02/12 18:24:12;;;;;;;183.00;81.70;;;;;;;-1.33;73.82;100074.91;439825;1250;109834;-42
2022/02/12 18:34:16;;;;;;;175.80;75.40;;;;;;;-1.31;73.57;100060.38;439776;1252;95458;-41
2022/02/12 18:44:19;;;;;;;152.20;68.10;;;;;;;-1.32;73.54;100058.18;439697;1251;96178;-43
2022/02/12 18:54:23;;;;;;;231.30;88.20;;;;;;;-1.40;73.61;100052.48;439840;1252;109760;-40
2022/02/12 19:04:41;;;;;;;224.00;86.00;;;;;;;-1.57;73.72;100042.89;440748;1249;95655;-41
2022/02/12 19:14:45;;;;;;;228.00;88.90;;;;;;;-1.71;73.90;100040.16;440459;1249;96210;-40
2022/02/12 19:34:54;;;;;;;129.00;58.00;;;;;;;-1.92;73.55;100015.48;440695;1249;108718;-41
2022/02/12 19:55:03;;;;;;;177.30;61.00;;;;;;;-1.93;73.78;100011.20;440499;1249;108084;-40
2022/02/12 20:05:07;;;;;;;163.90;64.10;;;;;;;-2.02;74.05;99995.69;440676;1248;96524;-40
2022/02/12 20:15:12;;;;;;;167.20;66.40;;;;;;;-2.17;73.89;99984.72;440847;1249;96144;-40
2022/02/12 20:35:26;;;;;;;126.40;51.50;;;;;;;-2.39;73.83;99952.30;440713;1248;109771;-41
2022/02/12 20:45:30;;;;;;;100.80;43.80;;;;;;;-2.32;73.81;99943.71;440767;1248;108887;-41
2022/02/12 20:55:33;;;;;;;145.70;57.50;;;;;;;-2.30;73.67;99939.02;440437;1248;95275;-40
2022/02/12 21:05:36;;;;;;;164.20;61.30;;;;;;;-2.35;74.11;99923.88;440142;1250;96793;-39
2022/02/12 21:25:53;;;;;;;111.20;46.40;;;;;;;-2.48;73.93;99907.04;439972;1250;97161;-43
2022/02/12 21:35:56;;;;;;;117.10;45.60;;;;;;;-2.47;73.77;99898.86;440072;1250;96142;-39
2022/02/12 21:46:00;;;;;;;132.00;47.90;;;;;;;-2.49;73.77;99893.88;439997;1250;109046;-39
2022/02/12 21:56:07;;;;;;;166.20;63.00;;;;;;;-2.57;73.67;99885.11;439913;1252;95921;-41
2022/02/12 22:16:14;;;;;;;174.30;62.60;;;;;;;-2.83;73.91;99865.52;439979;1250;108718;-40
2022/02/12 22:26:19;;;;;;;116.70;48.00;;;;;;;-2.84;73.91;99861.67;439995;1251;96541;-43
2022/02/12 22:36:26;;;;;;;115.20;48.30;;;;;;;-2.82;73.86;99851.95;439948;1250;109672;-41
2022/02/12 22:56:33;;;;;;;169.90;59.40;;;;;;;-2.99;74.03;99851.20;440263;1250;95294;-40
2022/02/12 23:06:39;;;;;;;165.50;59.10;;;;;;;-3.12;74.24;99838.17;439977;1251;109876;-42
2022/02/12 23:16:44;;;;;;;93.50;41.90;;;;;;;-3.18;73.98;99822.44;440011;1251;108755;-41
2022/02/12 23:26:48;;;;;;;88.90;35.10;;;;;;;-3.17;74.12;99814.42;440034;1250;96151;-40
2022/02/12 23:36:52;;;;;;;130.30;48.00;;;;;;;-3.18;74.23;99805.84;440026;1250;109213;-40
2022/02/12 23:46:56;;;;;;;117.40;42.80;;;;;;;-3.26;74.27;99795.29;440022;1251;96071;-40
2022/02/12 23:56:59;;;;;;;115.30;42.60;;;;;;;-3.35;74.17;99789.34;440327;1252;95716;-41
